createdAt,value
2022-07-29T00:00:15.267Z,1.95
2022-07-29T00:02:42.231Z,2.15
2022-07-29T00:05:10.085Z,2.20
2022-07-29T00:07:37.015Z,2.10
2022-07-29T00:10:04.948Z,2.17
2022-07-29T00:12:31.933Z,2.22
2022-07-29T00:14:59.376Z,2.30
2022-07-29T00:17:26.674Z,2.45
2022-07-29T00:19:53.895Z,2.30
2022-07-29T00:22:21.448Z,2.17
2022-07-29T00:24:50.053Z,2.13
2022-07-29T00:27:17.819Z,2.03
2022-07-29T00:29:44.723Z,1.90
2022-07-29T00:32:11.861Z,2.17
2022-07-29T00:34:57.353Z,2.28
2022-07-29T00:37:24.557Z,2.22
2022-07-29T00:39:51.556Z,2.03
2022-07-29T00:42:18.547Z,2.17
2022-07-29T00:44:45.382Z,2.00
2022-07-29T00:47:13.430Z,2.10
2022-07-29T00:49:41.855Z,2.30
2022-07-29T00:52:10.290Z,1.90
2022-07-29T00:54:43.929Z,2.55
2022-07-29T00:57:13.095Z,1.95
2022-07-29T00:59:40.580Z,2.50
2022-07-29T01:02:07.753Z,2.30
2022-07-29T01:04:34.903Z,1.90
2022-07-29T01:07:05.520Z,1.80
2022-07-29T01:09:45.696Z,2.20
2022-07-29T01:12:19.254Z,2.35
2022-07-29T01:14:47.407Z,1.98
2022-07-29T01:17:21.124Z,2.13
2022-07-29T01:20:00.232Z,2.55
2022-07-29T01:22:55.286Z,2.00
2022-07-29T01:25:28.342Z,2.33
2022-07-29T01:28:01.358Z,2.40
2022-07-29T01:33:03.427Z,2.03
2022-07-29T01:35:37.259Z,2.67
2022-07-29T01:38:30.591Z,1.98
2022-07-29T01:41:07.504Z,2.10
2022-07-29T01:43:57.509Z,2.20
2022-07-29T01:46:36.621Z,2.20
2022-07-29T01:49:14.941Z,2.00
2022-07-29T01:51:52.628Z,2.35
2022-07-29T01:54:31.612Z,2.10
2022-07-29T01:57:00.585Z,2.22
2022-07-29T01:59:28.588Z,2.30
2022-07-29T02:01:58.186Z,2.70
2022-07-29T02:04:29.909Z,2.05
2022-07-29T02:07:02.792Z,1.92
2022-07-29T02:09:32.588Z,2.47
2022-07-29T02:12:02.304Z,2.00
2022-07-29T02:14:34.335Z,2.17
2022-07-29T02:17:03.186Z,1.75
2022-07-29T02:19:33.531Z,2.40
2022-07-29T02:22:01.654Z,2.50
2022-07-29T02:24:31.007Z,2.08
2022-07-29T02:27:00.179Z,2.55
2022-07-29T02:29:29.537Z,2.20
2022-07-29T02:31:58.615Z,2.38
2022-07-29T02:34:26.419Z,2.30
2022-07-29T02:36:55.269Z,2.38
2022-07-29T02:39:23.742Z,2.80
2022-07-29T02:42:00.183Z,2.03
2022-07-29T02:44:32.628Z,2.72
2022-07-29T02:47:21.659Z,2.20
2022-07-29T02:49:56.186Z,2.50
2022-07-29T02:52:33.013Z,2.45
2022-07-29T02:55:07.826Z,2.45
2022-07-29T02:58:27.237Z,2.40
2022-07-29T03:00:56.267Z,2.25
2022-07-29T03:03:26.213Z,2.50
2022-07-29T03:05:57.662Z,2.05
2022-07-29T03:08:25.715Z,2.40
2022-07-29T03:10:53.691Z,2.78
2022-07-29T03:13:21.137Z,2.53
2022-07-29T03:15:48.793Z,2.40
2022-07-29T03:18:16.631Z,2.95
2022-07-29T03:20:43.619Z,2.47
2022-07-29T03:23:10.592Z,2.90
2022-07-29T03:25:37.890Z,2.30
2022-07-29T03:28:05.038Z,2.67
2022-07-29T03:30:31.921Z,2.65
2022-07-29T03:32:59.238Z,2.35
2022-07-29T03:35:26.224Z,2.30
2022-07-29T03:37:53.145Z,2.88
2022-07-29T03:40:28.834Z,2.60
2022-07-29T03:42:57.577Z,2.47
2022-07-29T03:45:26.285Z,2.40
2022-07-29T03:48:00.644Z,2.60
2022-07-29T03:50:31.527Z,2.67
2022-07-29T03:52:58.843Z,2.47
2022-07-29T03:55:26.579Z,2.95
2022-07-29T03:57:53.938Z,2.88
2022-07-29T04:00:21.006Z,3.00
2022-07-29T04:02:49.948Z,2.53
2022-07-29T04:05:17.262Z,2.70
2022-07-29T04:07:48.626Z,2.90
2022-07-29T04:10:17.897Z,2.72
2022-07-29T04:12:57.492Z,2.88
2022-07-29T04:15:24.418Z,2.97
2022-07-29T04:17:51.299Z,3.13
2022-07-29T04:20:18.447Z,2.30
2022-07-29T04:22:45.348Z,2.58
2022-07-29T04:25:12.201Z,2.70
2022-07-29T04:27:59.065Z,2.90
2022-07-29T04:30:25.953Z,2.80
2022-07-29T04:32:53.175Z,2.58
2022-07-29T04:35:20.981Z,2.47
2022-07-29T04:37:47.826Z,2.90
2022-07-29T04:40:15.464Z,3.13
2022-07-29T04:42:46.894Z,2.63
2022-07-29T04:45:15.166Z,2.67
2022-07-29T04:47:43.627Z,3.42
2022-07-29T04:50:10.703Z,2.92
2022-07-29T04:52:37.905Z,2.72
2022-07-29T04:55:06.282Z,2.28
2022-07-29T04:57:33.604Z,2.22
2022-07-29T05:00:00.848Z,2.38
2022-07-29T05:02:27.916Z,2.75
2022-07-29T05:04:54.831Z,2.17
2022-07-29T05:07:21.756Z,2.20
2022-07-29T05:09:48.821Z,3.05
2022-07-29T05:12:15.678Z,2.10
2022-07-29T05:14:42.682Z,2.45
2022-07-29T05:17:09.558Z,2.22
2022-07-29T05:19:39.551Z,2.45
2022-07-29T05:22:06.979Z,2.40
2022-07-29T05:24:33.883Z,2.90
2022-07-29T05:27:00.811Z,2.72
2022-07-29T05:29:44.438Z,3.08
2022-07-29T05:32:13.303Z,2.50
2022-07-29T05:34:50.443Z,2.70
2022-07-29T05:37:20.511Z,2.63
2022-07-29T05:39:48.561Z,2.65
2022-07-29T05:42:16.241Z,2.75
2022-07-29T05:44:43.126Z,2.38
2022-07-29T05:47:10.076Z,2.80
2022-07-29T05:49:37.060Z,2.40
2022-07-29T05:52:04.427Z,2.70
2022-07-29T05:54:31.617Z,2.25
2022-07-29T05:56:58.575Z,2.20
2022-07-29T05:59:30.080Z,2.33
2022-07-29T06:01:58.216Z,2.58
2022-07-29T06:04:25.469Z,2.83
2022-07-29T06:06:52.435Z,2.80
2022-07-29T06:09:19.792Z,2.55
2022-07-29T06:11:46.847Z,2.50
2022-07-29T06:14:14.048Z,2.20
2022-07-29T06:16:41.371Z,2.50
2022-07-29T06:19:08.341Z,2.60
2022-07-29T06:21:38.677Z,2.60
2022-07-29T06:24:09.151Z,2.60
2022-07-29T06:26:39.605Z,2.25
2022-07-29T06:29:07.920Z,2.60
2022-07-29T06:31:35.425Z,2.33
2022-07-29T06:34:02.491Z,3.10
2022-07-29T06:36:30.740Z,2.45
2022-07-29T06:38:57.729Z,2.45
2022-07-29T06:41:24.917Z,2.20
2022-07-29T06:43:54.533Z,2.47
2022-07-29T06:46:23.554Z,2.42
2022-07-29T06:48:52.733Z,2.60
2022-07-29T06:51:22.721Z,3.42
2022-07-29T06:53:59.738Z,2.70
2022-07-29T06:56:40.328Z,2.50
2022-07-29T06:59:09.426Z,2.80
2022-07-29T07:01:38.092Z,2.55
2022-07-29T07:04:05.251Z,2.83
2022-07-29T07:06:32.321Z,2.85
2022-07-29T07:08:59.219Z,3.22
2022-07-29T07:11:26.131Z,2.88
2022-07-29T07:13:53.033Z,2.95
2022-07-29T07:16:20.075Z,3.13
2022-07-29T07:18:47.006Z,2.78
2022-07-29T07:21:19.139Z,2.97
2022-07-29T07:23:46.868Z,2.72
2022-07-29T07:26:13.924Z,2.90
2022-07-29T07:28:40.927Z,2.72
2022-07-29T07:31:07.915Z,3.00
2022-07-29T07:33:34.880Z,2.78
2022-07-29T07:36:01.750Z,3.25
2022-07-29T07:38:28.672Z,3.80
2022-07-29T07:40:55.667Z,2.65
2022-07-29T07:43:23.613Z,2.90
2022-07-29T07:45:50.574Z,3.58
2022-07-29T07:48:17.694Z,3.15
2022-07-29T07:50:44.803Z,2.95
2022-07-29T07:53:12.078Z,3.75
2022-07-29T07:58:30.276Z,4.30
2022-07-29T08:00:57.206Z,4.00
2022-07-29T08:03:24.176Z,3.60
2022-07-29T08:05:52.817Z,3.08
2022-07-29T08:08:19.864Z,3.58
2022-07-29T08:10:53.050Z,3.45
2022-07-29T08:13:22.254Z,3.70
2022-07-29T08:15:58.249Z,4.35
2022-07-29T08:18:26.392Z,3.53
2022-07-29T08:20:53.371Z,3.83
2022-07-29T08:23:20.631Z,3.75
2022-07-29T08:25:47.671Z,3.78
2022-07-29T08:28:18.134Z,3.60
2022-07-29T08:30:45.077Z,3.38
2022-07-29T08:33:12.307Z,3.88
2022-07-29T08:35:40.271Z,3.67
2022-07-29T08:38:07.247Z,3.50
2022-07-29T08:40:34.124Z,3.88
2022-07-29T08:43:09.300Z,4.10
2022-07-29T08:45:47.334Z,3.63
2022-07-29T08:48:17.012Z,3.35
2022-07-29T08:50:46.192Z,3.67
2022-07-29T08:53:16.078Z,3.25
2022-07-29T08:55:45.903Z,3.47
2022-07-29T08:58:15.644Z,3.95
2022-07-29T09:00:51.205Z,3.78
2022-07-29T09:03:23.913Z,3.83
2022-07-29T09:05:52.038Z,3.55
2022-07-29T09:08:19.218Z,3.78
2022-07-29T09:10:46.498Z,3.33
2022-07-29T09:13:13.417Z,3.95
2022-07-29T09:15:40.560Z,3.30
2022-07-29T09:18:07.640Z,3.58
2022-07-29T09:21:13.054Z,3.58
2022-07-29T09:23:42.610Z,3.53
2022-07-29T09:26:09.467Z,3.65
2022-07-29T09:28:43.186Z,3.70
2022-07-29T09:31:10.121Z,3.72
2022-07-29T09:33:40.123Z,4.32
2022-07-29T09:36:09.199Z,3.90
2022-07-29T09:38:38.214Z,3.85
2022-07-29T09:41:06.917Z,3.95
2022-07-29T09:43:34.806Z,4.80
2022-07-29T09:46:12.932Z,4.70
2022-07-29T09:48:40.069Z,4.10
2022-07-29T09:51:20.589Z,4.80
2022-07-29T09:53:49.159Z,4.82
2022-07-29T09:56:16.055Z,5.00
2022-07-29T09:58:43.013Z,5.28
2022-07-29T10:01:09.986Z,4.88
2022-07-29T10:03:53.690Z,5.25
2022-07-29T10:06:20.652Z,5.13
2022-07-29T10:08:47.926Z,5.03
2022-07-29T10:11:19.304Z,4.93
2022-07-29T10:13:48.574Z,4.68
2022-07-29T10:16:17.287Z,4.72
2022-07-29T10:18:44.981Z,4.25
2022-07-29T10:21:22.601Z,4.40
2022-07-29T10:24:01.452Z,4.20
2022-07-29T10:26:30.461Z,5.10
2022-07-29T10:28:57.308Z,5.13
2022-07-29T10:31:43.529Z,4.50
2022-07-29T10:34:33.820Z,4.60
2022-07-29T10:37:15.373Z,4.63
2022-07-29T10:40:27.363Z,4.30
2022-07-29T10:42:56.663Z,4.45
2022-07-29T10:45:23.878Z,4.82
2022-07-29T10:48:05.095Z,5.10
2022-07-29T10:51:05.305Z,4.50
2022-07-29T10:53:51.071Z,4.80
2022-07-29T10:56:29.258Z,4.25
2022-07-29T10:59:21.773Z,4.50
2022-07-29T11:01:53.742Z,4.57
2022-07-29T11:05:00.973Z,4.53
2022-07-29T11:07:45.824Z,4.30
2022-07-29T11:10:16.593Z,5.38
2022-07-29T11:12:43.687Z,4.57
2022-07-29T11:15:19.796Z,4.88
2022-07-29T11:17:59.386Z,4.45
2022-07-29T11:20:42.302Z,4.90
2022-07-29T11:23:33.453Z,4.93
2022-07-29T11:26:18.956Z,4.30
2022-07-29T11:28:55.701Z,4.07
2022-07-29T11:31:44.119Z,4.03
2022-07-29T11:34:20.941Z,4.32
2022-07-29T11:37:13.898Z,5.07
2022-07-29T11:39:53.930Z,5.22
2022-07-29T11:42:32.563Z,5.40
2022-07-29T11:48:29.642Z,5.25
2022-07-29T11:50:48.374Z,5.18
2022-07-29T11:53:16.181Z,4.95
2022-07-29T11:55:51.083Z,4.55
2022-07-29T11:58:26.505Z,4.88
2022-07-29T12:00:55.536Z,4.63
2022-07-29T12:03:33.365Z,4.18
2022-07-29T12:06:12.270Z,4.55
2022-07-29T12:07:03.883Z,5.20
2022-07-29T12:08:44.339Z,5.20
2022-07-29T12:11:22.719Z,4.80
2022-07-29T12:13:52.102Z,5.40
2022-07-29T12:16:26.048Z,5.28
2022-07-29T12:18:58.215Z,4.53
2022-07-29T12:21:26.705Z,4.43
2022-07-29T12:24:01.819Z,4.88
2022-07-29T12:26:34.209Z,3.95
2022-07-29T12:29:03.598Z,4.00
2022-07-29T12:31:44.140Z,3.95
2022-07-29T12:34:15.270Z,3.90
2022-07-29T12:36:43.770Z,3.70
2022-07-29T12:39:12.391Z,4.28
2022-07-29T12:41:40.084Z,5.15
2022-07-29T12:44:06.976Z,3.70
2022-07-29T12:46:34.425Z,3.28
2022-07-29T12:49:01.419Z,3.55
2022-07-29T12:51:32.723Z,3.72
2022-07-29T12:54:06.588Z,3.53
2022-07-29T12:56:42.603Z,4.20
2022-07-29T12:59:21.374Z,4.25
2022-07-29T13:01:51.304Z,4.97
2022-07-29T13:04:36.640Z,4.90
2022-07-29T13:07:12.752Z,4.80
2022-07-29T13:09:43.872Z,4.95
2022-07-29T13:12:12.838Z,4.70
2022-07-29T13:14:46.035Z,4.45
2022-07-29T13:17:18.175Z,4.18
2022-07-29T13:19:46.450Z,4.60
2022-07-29T13:22:16.258Z,4.05
2022-07-29T13:24:50.500Z,4.63
2022-07-29T13:27:22.777Z,4.38
2022-07-29T13:29:52.364Z,4.70
2022-07-29T13:32:20.451Z,4.57
2022-07-29T13:35:01.625Z,4.63
2022-07-29T13:37:34.954Z,5.47
2022-07-29T13:40:04.278Z,5.40
2022-07-29T13:42:32.760Z,5.63
2022-07-29T13:45:00.667Z,5.10
2022-07-29T13:47:32.303Z,5.07
2022-07-29T13:50:03.006Z,5.43
2022-07-29T13:52:30.544Z,5.38
2022-07-29T13:54:57.854Z,4.95
2022-07-29T13:57:24.996Z,4.75
2022-07-29T13:59:54.468Z,5.43
2022-07-29T14:02:25.742Z,5.32
2022-07-29T14:04:54.669Z,5.57
2022-07-29T14:07:22.090Z,4.63
2022-07-29T14:09:49.050Z,4.97
2022-07-29T14:12:15.944Z,5.13
2022-07-29T14:14:43.009Z,5.13
2022-07-29T14:17:10.494Z,4.53
2022-07-29T14:19:38.937Z,4.13
2022-07-29T14:22:07.279Z,4.15
2022-07-29T14:24:37.309Z,4.10
2022-07-29T14:27:05.467Z,4.85
2022-07-29T14:29:36.801Z,4.68
2022-07-29T14:32:11.409Z,3.97
2022-07-29T14:34:39.150Z,3.75
2022-07-29T14:37:07.068Z,3.30
2022-07-29T14:39:39.527Z,3.00
2022-07-29T14:42:10.031Z,3.40
2022-07-29T14:44:39.592Z,3.30
2022-07-29T14:47:07.778Z,2.72
2022-07-29T14:49:35.835Z,2.78
2022-07-29T14:52:03.595Z,2.58
2022-07-29T14:54:30.455Z,2.92
2022-07-29T14:56:58.459Z,2.72
2022-07-29T14:59:26.572Z,3.05
2022-07-29T15:01:54.010Z,2.65
2022-07-29T15:04:21.474Z,2.85
2022-07-29T15:06:48.925Z,3.95
2022-07-29T15:09:15.998Z,3.50
2022-07-29T15:11:42.858Z,3.10
2022-07-29T15:14:10.017Z,3.47
2022-07-29T15:16:39.155Z,3.47
2022-07-29T15:19:09.928Z,3.95
2022-07-29T15:21:41.323Z,3.65
2022-07-29T15:24:15.641Z,2.90
2022-07-29T15:26:43.415Z,3.28
2022-07-29T15:29:10.426Z,3.00
2022-07-29T15:31:37.556Z,2.88
2022-07-29T15:34:05.934Z,3.38
2022-07-29T15:36:51.558Z,3.17
2022-07-29T15:39:20.774Z,2.90
2022-07-29T15:41:47.743Z,2.20
2022-07-29T15:44:14.664Z,2.50
2022-07-29T15:47:01.013Z,2.92
2022-07-29T15:49:48.725Z,3.17
2022-07-29T15:52:26.156Z,3.08
2022-07-29T15:54:55.197Z,3.03
2022-07-29T15:57:22.356Z,3.10
2022-07-29T15:59:49.217Z,3.15
2022-07-29T16:02:16.131Z,3.08
2022-07-29T16:04:43.026Z,3.47
2022-07-29T16:07:09.910Z,3.78
2022-07-29T16:09:36.800Z,3.20
2022-07-29T16:12:15.097Z,3.20
2022-07-29T16:14:43.675Z,2.90
2022-07-29T16:17:14.883Z,3.03
2022-07-29T16:19:43.688Z,3.17
2022-07-29T16:22:11.255Z,2.88
2022-07-29T16:24:38.939Z,2.70
2022-07-29T16:27:05.911Z,2.33
2022-07-29T16:29:32.853Z,2.13
2022-07-29T16:31:59.765Z,2.17
2022-07-29T16:34:26.704Z,1.88
2022-07-29T16:36:53.540Z,2.38
2022-07-29T16:39:20.478Z,2.25
2022-07-29T16:41:47.329Z,2.30
2022-07-29T16:44:14.420Z,2.38
2022-07-29T16:46:44.538Z,2.22
2022-07-29T16:49:11.647Z,2.42
2022-07-29T16:51:47.912Z,2.63
2022-07-29T16:54:15.085Z,2.65
2022-07-29T16:56:42.115Z,2.15
2022-07-29T16:59:08.988Z,2.28
2022-07-29T17:01:38.740Z,2.33
2022-07-29T17:04:06.214Z,2.30
2022-07-29T17:06:40.685Z,2.15
2022-07-29T17:09:11.728Z,2.40
2022-07-29T17:11:53.960Z,2.10
2022-07-29T17:14:29.546Z,2.22
2022-07-29T17:17:00.932Z,2.97
2022-07-29T17:19:33.934Z,2.70
2022-07-29T17:22:09.422Z,2.65
2022-07-29T17:24:40.192Z,3.08
2022-07-29T17:27:08.471Z,2.35
2022-07-29T17:29:35.446Z,2.60
2022-07-29T17:32:02.514Z,2.70
2022-07-29T17:34:29.430Z,3.20
2022-07-29T17:36:56.801Z,2.50
2022-07-29T17:39:24.219Z,2.25
2022-07-29T17:41:51.115Z,2.40
2022-07-29T17:44:18.315Z,2.42
2022-07-29T17:46:45.409Z,2.63
2022-07-29T17:49:12.503Z,2.67
2022-07-29T17:51:39.419Z,2.38
2022-07-29T17:54:06.370Z,2.67
2022-07-29T17:56:33.216Z,2.45
2022-07-29T17:59:01.720Z,2.65
2022-07-29T18:01:29.117Z,2.83
2022-07-29T18:03:59.988Z,2.42
2022-07-29T18:06:27.220Z,2.60
2022-07-29T18:08:55.309Z,3.17
2022-07-29T18:11:23.127Z,2.75
2022-07-29T18:13:50.025Z,3.15
2022-07-29T18:16:17.260Z,2.70
2022-07-29T18:18:45.758Z,2.67
2022-07-29T18:21:13.151Z,2.88
2022-07-29T18:23:40.271Z,2.60
2022-07-29T18:26:07.136Z,2.90
2022-07-29T18:28:34.116Z,2.47
2022-07-29T18:31:02.384Z,2.90
2022-07-29T18:33:29.538Z,2.55
2022-07-29T18:36:10.963Z,2.65
2022-07-29T18:38:40.179Z,3.13
2022-07-29T18:41:07.198Z,2.85
2022-07-29T18:43:34.095Z,3.13
2022-07-29T18:46:01.119Z,3.53
2022-07-29T18:48:29.514Z,2.50
2022-07-29T18:50:56.393Z,3.08
2022-07-29T18:53:23.294Z,2.90
2022-07-29T18:55:50.126Z,2.50
2022-07-29T18:58:17.014Z,2.88
2022-07-29T19:00:43.931Z,3.17
2022-07-29T19:03:11.015Z,2.80
2022-07-29T19:05:38.002Z,2.95
2022-07-29T19:08:05.436Z,2.65
2022-07-29T19:10:32.318Z,2.55
2022-07-29T19:12:59.257Z,2.38
2022-07-29T19:15:26.473Z,2.45
2022-07-29T19:17:56.575Z,2.45
2022-07-29T19:20:26.056Z,2.78
2022-07-29T19:22:53.152Z,2.58
2022-07-29T19:25:20.264Z,2.88
2022-07-29T19:27:47.438Z,2.70
2022-07-29T19:30:14.377Z,2.55
2022-07-29T19:32:41.515Z,2.90
2022-07-29T19:35:27.447Z,2.45
2022-07-29T19:40:22.494Z,2.53
2022-07-29T19:42:51.851Z,2.80
2022-07-29T19:45:24.664Z,2.65
2022-07-29T19:47:52.070Z,2.30
2022-07-29T19:50:19.000Z,2.63
2022-07-29T19:52:47.175Z,2.83
2022-07-29T19:55:14.829Z,2.67
2022-07-29T19:57:42.379Z,2.80
2022-07-29T20:00:11.660Z,2.90
2022-07-29T20:02:40.226Z,2.55
2022-07-29T20:05:08.066Z,3.47
2022-07-29T20:07:35.355Z,3.03
2022-07-29T20:10:02.627Z,3.15
2022-07-29T20:12:29.560Z,2.20
2022-07-29T20:14:56.447Z,2.50
2022-07-29T20:17:24.138Z,2.97
2022-07-29T20:19:51.798Z,3.25
2022-07-29T20:22:20.987Z,3.42
2022-07-29T20:24:48.843Z,2.83
2022-07-29T20:27:15.859Z,3.33
2022-07-29T20:29:42.794Z,2.80
2022-07-29T20:32:11.956Z,2.72
2022-07-29T20:34:41.246Z,2.65
2022-07-29T20:37:13.434Z,2.70
2022-07-29T20:39:42.694Z,2.60
2022-07-29T20:42:09.732Z,2.33
2022-07-29T20:44:37.096Z,2.70
2022-07-29T20:47:03.997Z,3.00
2022-07-29T20:49:30.972Z,3.30
2022-07-29T20:51:58.391Z,2.83
2022-07-29T20:54:25.451Z,2.97
2022-07-29T20:56:53.158Z,2.90
2022-07-29T20:59:20.124Z,2.55
2022-07-29T21:01:46.985Z,2.88
2022-07-29T21:04:13.882Z,2.53
2022-07-29T21:06:41.123Z,2.40
2022-07-29T21:09:08.058Z,2.97
2022-07-29T21:11:44.797Z,2.92
2022-07-29T21:14:31.833Z,2.80
2022-07-29T21:16:58.944Z,2.83
2022-07-29T21:19:26.277Z,2.67
2022-07-29T21:21:53.474Z,3.05
2022-07-29T21:24:20.322Z,3.00
2022-07-29T21:27:04.771Z,2.65
2022-07-29T21:29:34.267Z,2.75
2022-07-29T21:32:01.091Z,2.80
2022-07-29T21:34:28.063Z,3.00
2022-07-29T21:36:55.167Z,2.60
2022-07-29T21:39:22.143Z,2.33
2022-07-29T21:41:49.084Z,2.60
2022-07-29T21:44:16.116Z,2.95
2022-07-29T21:46:42.973Z,2.42
2022-07-29T21:49:09.933Z,2.75
2022-07-29T21:51:36.865Z,2.63
2022-07-29T21:54:04.343Z,3.08
2022-07-29T21:56:31.544Z,2.65
2022-07-29T21:58:58.568Z,2.33
2022-07-29T22:01:25.493Z,2.97
2022-07-29T22:03:52.576Z,2.97
2022-07-29T22:06:19.889Z,2.70
2022-07-29T22:08:47.921Z,2.65
2022-07-29T22:11:14.938Z,3.20
2022-07-29T22:13:41.997Z,2.83
2022-07-29T22:16:10.212Z,3.13
2022-07-29T22:18:37.088Z,3.28
2022-07-29T22:21:04.072Z,3.25
2022-07-29T22:23:31.366Z,2.83
2022-07-29T22:25:58.411Z,2.97
2022-07-29T22:28:25.440Z,2.78
2022-07-29T22:30:52.345Z,3.08
2022-07-29T22:33:19.254Z,3.15
2022-07-29T22:35:48.855Z,2.97
2022-07-29T22:38:20.338Z,2.58
2022-07-29T22:40:48.706Z,3.03
2022-07-29T22:43:17.729Z,3.13
2022-07-29T22:45:44.645Z,3.30
2022-07-29T22:48:11.899Z,3.10
2022-07-29T22:50:39.154Z,2.95
2022-07-29T22:53:06.063Z,2.78
2022-07-29T22:55:33.115Z,3.15
2022-07-29T22:58:00.030Z,2.95
2022-07-29T23:00:29.560Z,2.83
2022-07-29T23:02:56.485Z,2.70
2022-07-29T23:05:23.327Z,2.83
2022-07-29T23:07:50.216Z,2.95
2022-07-29T23:10:17.127Z,2.90
2022-07-29T23:12:44.010Z,2.80
2022-07-29T23:15:10.931Z,2.60
2022-07-29T23:17:38.011Z,3.10
2022-07-29T23:20:07.593Z,2.58
2022-07-29T23:22:35.987Z,3.17
2022-07-29T23:25:03.896Z,2.75
2022-07-29T23:27:30.893Z,3.08
2022-07-29T23:29:57.722Z,2.78
2022-07-29T23:32:24.635Z,2.92
2022-07-29T23:34:51.452Z,2.63
2022-07-29T23:37:18.401Z,3.05
2022-07-29T23:39:45.269Z,2.88
2022-07-29T23:42:12.173Z,3.13
2022-07-29T23:44:40.305Z,2.85
2022-07-29T23:47:07.362Z,3.13
2022-07-29T23:49:34.599Z,3.10
2022-07-29T23:52:01.493Z,3.17
2022-07-29T23:54:28.360Z,3.38
2022-07-29T23:56:57.860Z,2.90
2022-07-29T23:59:25.288Z,2.92
